sensor_id;sensor_type;location;lat;lon;timestamp;pressure;altitude;pressure_sealevel;temperature;humidity
49657;BME280;71194;38.900;-77.124;2023-10-31T01:11:35;100185.50;;;8.95;86.63
49657;BME280;71194;38.900;-77.124;2023-10-31T01:14:04;100195.28;;;11.82;75.52
49657;BME280;71194;38.900;-77.124;2023-10-31T01:16:32;100214.39;;;12.99;68.53
49657;BME280;71194;38.900;-77.124;2023-10-31T01:19:00;100228.01;;;13.78;64.62
49657;BME280;71194;38.900;-77.124;2023-10-31T01:21:28;100237.50;;;14.56;63.24
49657;BME280;71194;38.900;-77.124;2023-10-31T01:23:56;100235.14;;;15.05;59.92
49657;BME280;71194;38.900;-77.124;2023-10-31T01:26:24;100235.64;;;15.08;57.46
49657;BME280;71194;38.900;-77.124;2023-10-31T01:28:52;100239.47;;;15.04;57.25
49657;BME280;71194;38.900;-77.124;2023-10-31T01:31:20;100241.39;;;15.32;55.09
49657;BME280;71194;38.900;-77.124;2023-10-31T01:33:48;100251.56;;;15.16;55.89
49657;BME280;71194;38.900;-77.124;2023-10-31T01:36:16;100254.03;;;15.37;55.26
49657;BME280;71194;38.900;-77.124;2023-10-31T01:38:44;100255.79;;;15.39;54.36
49657;BME280;71194;38.900;-77.124;2023-10-31T01:41:12;100250.39;;;15.24;52.07
49657;BME280;71194;38.900;-77.124;2023-10-31T01:43:40;100238.38;;;15.34;51.52
49657;BME280;71194;38.900;-77.124;2023-10-31T01:46:08;100242.89;;;15.30;51.51
49657;BME280;71194;38.900;-77.124;2023-10-31T01:48:36;100218.06;;;15.31;49.94
49657;BME280;71194;38.900;-77.124;2023-10-31T01:51:04;100215.76;;;15.21;50.66
49657;BME280;71194;38.900;-77.124;2023-10-31T01:53:33;100224.07;;;15.36;50.34
49657;BME280;71194;38.900;-77.124;2023-10-31T01:56:03;100282.97;;;14.91;50.79
49657;BME280;71194;38.900;-77.124;2023-10-31T01:58:34;100287.19;;;14.84;50.24
49657;BME280;71194;38.900;-77.124;2023-10-31T02:01:02;100281.28;;;14.83;49.37
49657;BME280;71194;38.900;-77.124;2023-10-31T02:03:30;100262.49;;;14.66;49.65
49657;BME280;71194;38.900;-77.124;2023-10-31T02:05:58;100272.47;;;14.75;49.35
49657;BME280;71194;38.900;-77.124;2023-10-31T02:08:26;100298.87;;;14.74;48.33
49657;BME280;71194;38.900;-77.124;2023-10-31T02:10:54;100340.25;;;14.57;49.24
49657;BME280;71194;38.900;-77.124;2023-10-31T02:13:22;100328.26;;;14.66;48.62
49657;BME280;71194;38.900;-77.124;2023-10-31T02:15:51;100315.49;;;15.00;47.39
49657;BME280;71194;38.900;-77.124;2023-10-31T02:18:18;100343.29;;;14.51;48.20
49657;BME280;71194;38.900;-77.124;2023-10-31T02:20:46;100340.13;;;14.59;47.92
49657;BME280;71194;38.900;-77.124;2023-10-31T02:23:16;100329.27;;;14.75;47.06
49657;BME280;71194;38.900;-77.124;2023-10-31T02:25:44;100338.98;;;14.59;47.26
49657;BME280;71194;38.900;-77.124;2023-10-31T02:28:12;100327.57;;;14.47;47.73
49657;BME280;71194;38.900;-77.124;2023-10-31T02:30:40;100330.45;;;14.55;47.21
49657;BME280;71194;38.900;-77.124;2023-10-31T02:33:08;100338.26;;;14.29;47.90
49657;BME280;71194;38.900;-77.124;2023-10-31T02:35:36;100356.84;;;14.62;47.66
49657;BME280;71194;38.900;-77.124;2023-10-31T02:38:04;100366.40;;;14.59;47.05
49657;BME280;71194;38.900;-77.124;2023-10-31T02:40:32;100365.11;;;14.46;47.12
49657;BME280;71194;38.900;-77.124;2023-10-31T02:43:00;100379.56;;;14.54;47.56
49657;BME280;71194;38.900;-77.124;2023-10-31T02:45:28;100378.63;;;14.76;47.15
49657;BME280;71194;38.900;-77.124;2023-10-31T02:47:56;100373.80;;;14.59;47.18
49657;BME280;71194;38.900;-77.124;2023-10-31T02:50:24;100377.78;;;14.45;47.64
49657;BME280;71194;38.900;-77.124;2023-10-31T02:52:52;100363.16;;;14.61;47.36
49657;BME280;71194;38.900;-77.124;2023-10-31T02:55:20;100352.29;;;14.60;46.07
49657;BME280;71194;38.900;-77.124;2023-10-31T02:57:48;100355.12;;;14.61;46.32
49657;BME280;71194;38.900;-77.124;2023-10-31T03:00:17;100372.13;;;14.39;46.87
49657;BME280;71194;38.900;-77.124;2023-10-31T03:02:44;100364.58;;;14.75;47.06
49657;BME280;71194;38.900;-77.124;2023-10-31T03:05:12;100353.64;;;14.39;47.07
49657;BME280;71194;38.900;-77.124;2023-10-31T03:07:40;100354.34;;;14.65;47.24
49657;BME280;71194;38.900;-77.124;2023-10-31T03:10:08;100368.11;;;14.41;47.06
49657;BME280;71194;38.900;-77.124;2023-10-31T03:12:36;100358.34;;;14.24;46.86
49657;BME280;71194;38.900;-77.124;2023-10-31T03:15:05;100370.45;;;14.46;46.69
49657;BME280;71194;38.900;-77.124;2023-10-31T03:17:33;100376.11;;;14.25;46.71
49657;BME280;71194;38.900;-77.124;2023-10-31T03:20:01;100381.06;;;14.20;46.79
49657;BME280;71194;38.900;-77.124;2023-10-31T03:22:29;100375.28;;;14.19;47.16
49657;BME280;71194;38.900;-77.124;2023-10-31T03:24:57;100383.85;;;14.40;46.97
49657;BME280;71194;38.900;-77.124;2023-10-31T03:27:25;100393.38;;;14.58;47.03
49657;BME280;71194;38.900;-77.124;2023-10-31T03:29:53;100395.75;;;14.50;46.83
49657;BME280;71194;38.900;-77.124;2023-10-31T03:32:21;100387.14;;;14.30;46.72
49657;BME280;71194;38.900;-77.124;2023-10-31T03:34:49;100390.86;;;14.71;46.92
49657;BME280;71194;38.900;-77.124;2023-10-31T03:37:17;100405.36;;;14.54;46.29
49657;BME280;71194;38.900;-77.124;2023-10-31T03:39:45;100403.64;;;14.55;46.55
49657;BME280;71194;38.900;-77.124;2023-10-31T03:42:13;100397.87;;;14.59;45.83
49657;BME280;71194;38.900;-77.124;2023-10-31T03:44:41;100406.99;;;14.65;46.38
49657;BME280;71194;38.900;-77.124;2023-10-31T03:47:09;100411.96;;;14.58;46.54
49657;BME280;71194;38.900;-77.124;2023-10-31T03:49:38;100405.41;;;14.29;46.96
49657;BME280;71194;38.900;-77.124;2023-10-31T03:52:06;100401.04;;;14.42;46.71
49657;BME280;71194;38.900;-77.124;2023-10-31T03:54:34;100413.67;;;14.20;46.62
49657;BME280;71194;38.900;-77.124;2023-10-31T03:57:02;100419.08;;;14.27;46.78
49657;BME280;71194;38.900;-77.124;2023-10-31T03:59:30;100414.63;;;14.55;46.53
49657;BME280;71194;38.900;-77.124;2023-10-31T04:01:58;100402.58;;;14.32;46.02
49657;BME280;71194;38.900;-77.124;2023-10-31T04:04:26;100421.14;;;14.34;46.49
49657;BME280;71194;38.900;-77.124;2023-10-31T04:06:54;100419.74;;;14.36;46.36
49657;BME280;71194;38.900;-77.124;2023-10-31T04:09:22;100419.60;;;14.20;46.56
49657;BME280;71194;38.900;-77.124;2023-10-31T04:11:50;100414.53;;;14.27;46.67
49657;BME280;71194;38.900;-77.124;2023-10-31T04:14:18;100418.12;;;14.16;46.81
49657;BME280;71194;38.900;-77.124;2023-10-31T04:16:46;100415.48;;;14.28;46.46
49657;BME280;71194;38.900;-77.124;2023-10-31T04:19:14;100421.98;;;14.49;46.54
49657;BME280;71194;38.900;-77.124;2023-10-31T04:21:42;100431.33;;;14.32;46.59
49657;BME280;71194;38.900;-77.124;2023-10-31T04:24:10;100453.50;;;14.47;46.96
49657;BME280;71194;38.900;-77.124;2023-10-31T04:26:40;100455.60;;;14.26;47.70
49657;BME280;71194;38.900;-77.124;2023-10-31T04:29:08;100444.97;;;14.45;48.39
49657;BME280;71194;38.900;-77.124;2023-10-31T04:31:36;100430.80;;;14.67;47.37
49657;BME280;71194;38.900;-77.124;2023-10-31T04:34:04;100434.15;;;14.58;46.73
49657;BME280;71194;38.900;-77.124;2023-10-31T04:36:32;100437.46;;;14.73;46.60
49657;BME280;71194;38.900;-77.124;2023-10-31T04:39:00;100428.76;;;14.74;45.50
49657;BME280;71194;38.900;-77.124;2023-10-31T04:41:28;100427.99;;;14.56;45.92
49657;BME280;71194;38.900;-77.124;2023-10-31T04:43:56;100420.59;;;14.67;45.82
49657;BME280;71194;38.900;-77.124;2023-10-31T04:46:25;100416.05;;;14.52;46.34
49657;BME280;71194;38.900;-77.124;2023-10-31T04:48:54;100418.06;;;14.51;46.33
49657;BME280;71194;38.900;-77.124;2023-10-31T04:51:21;100413.71;;;14.38;46.63
49657;BME280;71194;38.900;-77.124;2023-10-31T04:53:49;100418.46;;;14.81;46.30
49657;BME280;71194;38.900;-77.124;2023-10-31T04:56:19;100421.61;;;14.55;46.04
49657;BME280;71194;38.900;-77.124;2023-10-31T04:58:46;100415.51;;;14.32;46.36
49657;BME280;71194;38.900;-77.124;2023-10-31T05:01:15;100407.60;;;14.49;46.36
49657;BME280;71194;38.900;-77.124;2023-10-31T05:03:43;100417.30;;;14.20;46.24
49657;BME280;71194;38.900;-77.124;2023-10-31T05:06:11;100415.94;;;14.36;45.98
49657;BME280;71194;38.900;-77.124;2023-10-31T05:08:39;100427.35;;;14.59;46.01
49657;BME280;71194;38.900;-77.124;2023-10-31T05:11:07;100435.45;;;14.18;46.05
49657;BME280;71194;38.900;-77.124;2023-10-31T05:13:35;100443.33;;;14.06;46.12
49657;BME280;71194;38.900;-77.124;2023-10-31T05:16:04;100442.70;;;14.30;46.09
49657;BME280;71194;38.900;-77.124;2023-10-31T05:18:32;100434.39;;;14.24;45.84
49657;BME280;71194;38.900;-77.124;2023-10-31T05:21:00;100433.92;;;14.34;46.06
49657;BME280;71194;38.900;-77.124;2023-10-31T05:23:28;100428.65;;;14.45;45.70
49657;BME280;71194;38.900;-77.124;2023-10-31T05:25:56;100429.08;;;14.40;45.34
49657;BME280;71194;38.900;-77.124;2023-10-31T05:28:24;100430.96;;;14.30;45.59
49657;BME280;71194;38.900;-77.124;2023-10-31T05:30:52;100429.30;;;14.57;45.80
49657;BME280;71194;38.900;-77.124;2023-10-31T05:33:20;100425.71;;;14.26;45.44
49657;BME280;71194;38.900;-77.124;2023-10-31T05:35:48;100444.89;;;14.34;45.26
49657;BME280;71194;38.900;-77.124;2023-10-31T05:38:16;100459.28;;;13.90;45.42
49657;BME280;71194;38.900;-77.124;2023-10-31T05:40:44;100470.03;;;13.87;45.38
49657;BME280;71194;38.900;-77.124;2023-10-31T05:43:12;100464.34;;;13.94;45.09
49657;BME280;71194;38.900;-77.124;2023-10-31T05:45:40;100457.35;;;14.06;45.20
49657;BME280;71194;38.900;-77.124;2023-10-31T05:48:08;100444.86;;;14.04;45.18
49657;BME280;71194;38.900;-77.124;2023-10-31T05:50:36;100446.66;;;14.35;45.04
49657;BME280;71194;38.900;-77.124;2023-10-31T05:53:04;100434.71;;;14.14;44.63
49657;BME280;71194;38.900;-77.124;2023-10-31T05:55:32;100430.93;;;14.30;44.69
49657;BME280;71194;38.900;-77.124;2023-10-31T05:58:00;100429.62;;;13.98;45.30
49657;BME280;71194;38.900;-77.124;2023-10-31T06:00:28;100426.26;;;14.07;45.46
49657;BME280;71194;38.900;-77.124;2023-10-31T06:02:56;100431.42;;;13.93;45.30
49657;BME280;71194;38.900;-77.124;2023-10-31T06:05:24;100450.01;;;14.00;45.62
49657;BME280;71194;38.900;-77.124;2023-10-31T06:07:52;100449.81;;;13.64;46.25
49657;BME280;71194;38.900;-77.124;2023-10-31T06:10:20;100452.63;;;13.62;46.58
49657;BME280;71194;38.900;-77.124;2023-10-31T06:12:48;100467.25;;;14.04;46.25
49657;BME280;71194;38.900;-77.124;2023-10-31T06:15:17;100477.28;;;14.08;46.68
49657;BME280;71194;38.900;-77.124;2023-10-31T06:17:44;100466.96;;;13.85;46.80
49657;BME280;71194;38.900;-77.124;2023-10-31T06:20:12;100466.86;;;13.98;46.78
49657;BME280;71194;38.900;-77.124;2023-10-31T06:22:41;100469.80;;;13.93;47.13
49657;BME280;71194;38.900;-77.124;2023-10-31T06:25:09;100481.18;;;14.08;47.52
49657;BME280;71194;38.900;-77.124;2023-10-31T06:27:37;100483.48;;;13.93;48.04
49657;BME280;71194;38.900;-77.124;2023-10-31T06:30:06;100479.14;;;13.97;49.03
49657;BME280;71194;38.900;-77.124;2023-10-31T06:32:33;100487.50;;;13.66;50.84
49657;BME280;71194;38.900;-77.124;2023-10-31T06:35:01;100484.28;;;13.87;50.70
49657;BME280;71194;38.900;-77.124;2023-10-31T06:37:29;100483.13;;;13.78;51.71
49657;BME280;71194;38.900;-77.124;2023-10-31T06:39:57;100469.51;;;13.57;52.51
49657;BME280;71194;38.900;-77.124;2023-10-31T06:42:25;100474.58;;;13.64;52.96
49657;BME280;71194;38.900;-77.124;2023-10-31T06:44:54;100491.44;;;13.59;53.25
49657;BME280;71194;38.900;-77.124;2023-10-31T06:47:21;100491.68;;;13.91;54.05
49657;BME280;71194;38.900;-77.124;2023-10-31T06:49:50;100493.69;;;13.63;55.04
49657;BME280;71194;38.900;-77.124;2023-10-31T06:52:18;100476.65;;;13.61;53.81
49657;BME280;71194;38.900;-77.124;2023-10-31T06:54:46;100475.28;;;13.92;53.46
49657;BME280;71194;38.900;-77.124;2023-10-31T06:57:14;100480.42;;;13.50;53.02
49657;BME280;71194;38.900;-77.124;2023-10-31T06:59:42;100491.28;;;13.77;51.36
49657;BME280;71194;38.900;-77.124;2023-10-31T07:02:10;100490.91;;;13.64;52.10
49657;BME280;71194;38.900;-77.124;2023-10-31T07:04:38;100489.82;;;13.93;52.63
49657;BME280;71194;38.900;-77.124;2023-10-31T07:07:06;100484.30;;;13.94;51.53
49657;BME280;71194;38.900;-77.124;2023-10-31T07:09:34;100492.16;;;13.69;48.72
49657;BME280;71194;38.900;-77.124;2023-10-31T07:12:02;100501.67;;;13.49;47.51
49657;BME280;71194;38.900;-77.124;2023-10-31T07:14:30;100513.88;;;13.23;48.32
49657;BME280;71194;38.900;-77.124;2023-10-31T07:16:58;100515.23;;;13.30;48.95
49657;BME280;71194;38.900;-77.124;2023-10-31T07:19:26;100525.28;;;13.54;45.48
49657;BME280;71194;38.900;-77.124;2023-10-31T07:21:54;100532.81;;;13.06;45.81
49657;BME280;71194;38.900;-77.124;2023-10-31T07:24:22;100524.03;;;13.62;44.77
49657;BME280;71194;38.900;-77.124;2023-10-31T07:26:50;100528.56;;;13.12;43.92
49657;BME280;71194;38.900;-77.124;2023-10-31T07:29:18;100525.49;;;13.42;42.69
49657;BME280;71194;38.900;-77.124;2023-10-31T07:31:46;100520.78;;;13.31;42.36
49657;BME280;71194;38.900;-77.124;2023-10-31T07:34:14;100520.29;;;13.08;42.63
49657;BME280;71194;38.900;-77.124;2023-10-31T07:36:42;100522.48;;;13.17;42.84
49657;BME280;71194;38.900;-77.124;2023-10-31T07:39:10;100528.19;;;13.00;43.04
49657;BME280;71194;38.900;-77.124;2023-10-31T07:41:38;100525.27;;;12.99;43.32
49657;BME280;71194;38.900;-77.124;2023-10-31T07:44:06;100527.60;;;13.63;42.84
49657;BME280;71194;38.900;-77.124;2023-10-31T07:46:34;100537.09;;;12.95;42.62
49657;BME280;71194;38.900;-77.124;2023-10-31T07:49:02;100524.84;;;13.15;42.49
49657;BME280;71194;38.900;-77.124;2023-10-31T07:51:32;100518.56;;;13.43;41.54
49657;BME280;71194;38.900;-77.124;2023-10-31T07:54:00;100529.11;;;13.20;40.49
49657;BME280;71194;38.900;-77.124;2023-10-31T07:56:28;100541.22;;;13.12;40.78
49657;BME280;71194;38.900;-77.124;2023-10-31T07:58:56;100547.28;;;12.88;41.17
49657;BME280;71194;38.900;-77.124;2023-10-31T08:01:24;100549.03;;;13.14;40.72
49657;BME280;71194;38.900;-77.124;2023-10-31T08:03:52;100547.26;;;13.15;40.41
49657;BME280;71194;38.900;-77.124;2023-10-31T08:06:20;100548.41;;;12.96;40.02
49657;BME280;71194;38.900;-77.124;2023-10-31T08:08:48;100563.01;;;13.00;40.21
49657;BME280;71194;38.900;-77.124;2023-10-31T08:11:16;100571.75;;;12.94;40.15
49657;BME280;71194;38.900;-77.124;2023-10-31T08:13:44;100573.27;;;12.84;40.50
49657;BME280;71194;38.900;-77.124;2023-10-31T08:16:17;100576.76;;;12.67;40.47
49657;BME280;71194;38.900;-77.124;2023-10-31T08:18:46;100571.95;;;12.90;39.62
49657;BME280;71194;38.900;-77.124;2023-10-31T08:21:13;100561.60;;;12.76;39.37
49657;BME280;71194;38.900;-77.124;2023-10-31T08:23:41;100560.33;;;12.81;39.36
49657;BME280;71194;38.900;-77.124;2023-10-31T08:26:09;100576.14;;;12.78;39.41
49657;BME280;71194;38.900;-77.124;2023-10-31T08:28:37;100567.33;;;12.57;39.82
49657;BME280;71194;38.900;-77.124;2023-10-31T08:31:06;100547.76;;;13.17;39.44
49657;BME280;71194;38.900;-77.124;2023-10-31T08:33:33;100563.76;;;12.86;39.80
49657;BME280;71194;38.900;-77.124;2023-10-31T08:36:02;100563.67;;;13.09;40.33
49657;BME280;71194;38.900;-77.124;2023-10-31T08:38:30;100563.42;;;13.11;40.36
49657;BME280;71194;38.900;-77.124;2023-10-31T08:40:59;100561.50;;;12.90;39.74
49657;BME280;71194;38.900;-77.124;2023-10-31T08:43:27;100558.03;;;12.71;37.74
49657;BME280;71194;38.900;-77.124;2023-10-31T08:45:55;100572.01;;;13.00;37.51
49657;BME280;71194;38.900;-77.124;2023-10-31T08:48:23;100585.58;;;12.81;36.80
49657;BME280;71194;38.900;-77.124;2023-10-31T08:50:51;100583.77;;;12.71;36.88
49657;BME280;71194;38.900;-77.124;2023-10-31T08:53:19;100581.21;;;12.68;36.37
49657;BME280;71194;38.900;-77.124;2023-10-31T08:55:47;100591.80;;;12.97;36.06
49657;BME280;71194;38.900;-77.124;2023-10-31T08:58:15;100604.05;;;12.75;36.42
49657;BME280;71194;38.900;-77.124;2023-10-31T09:00:43;100601.02;;;13.15;35.53
49657;BME280;71194;38.900;-77.124;2023-10-31T09:03:11;100597.27;;;13.04;35.07
49657;BME280;71194;38.900;-77.124;2023-10-31T09:05:39;100600.74;;;12.58;35.12
49657;BME280;71194;38.900;-77.124;2023-10-31T09:08:08;100598.75;;;12.93;34.36
49657;BME280;71194;38.900;-77.124;2023-10-31T09:10:37;100599.82;;;12.83;34.63
49657;BME280;71194;38.900;-77.124;2023-10-31T09:13:05;100612.20;;;12.85;34.70
49657;BME280;71194;38.900;-77.124;2023-10-31T09:15:33;100602.62;;;12.75;34.51
49657;BME280;71194;38.900;-77.124;2023-10-31T09:18:01;100590.50;;;12.89;34.20
49657;BME280;71194;38.900;-77.124;2023-10-31T09:20:29;100606.04;;;12.49;34.20
49657;BME280;71194;38.900;-77.124;2023-10-31T09:22:57;100614.79;;;12.73;34.84
49657;BME280;71194;38.900;-77.124;2023-10-31T09:25:25;100616.97;;;12.77;34.51
49657;BME280;71194;38.900;-77.124;2023-10-31T09:27:53;100619.82;;;12.70;34.75
49657;BME280;71194;38.900;-77.124;2023-10-31T09:30:21;100623.06;;;12.67;34.37
49657;BME280;71194;38.900;-77.124;2023-10-31T09:32:49;100617.02;;;12.61;34.15
49657;BME280;71194;38.900;-77.124;2023-10-31T09:35:17;100606.65;;;12.61;33.86
49657;BME280;71194;38.900;-77.124;2023-10-31T09:37:45;100618.43;;;12.23;34.22
49657;BME280;71194;38.900;-77.124;2023-10-31T09:40:13;100612.28;;;12.13;33.96
49657;BME280;71194;38.900;-77.124;2023-10-31T09:42:41;100621.33;;;12.20;33.59
49657;BME280;71194;38.900;-77.124;2023-10-31T09:45:10;100620.01;;;12.45;34.33
49657;BME280;71194;38.900;-77.124;2023-10-31T09:47:37;100615.48;;;12.20;35.03
49657;BME280;71194;38.900;-77.124;2023-10-31T09:50:06;100627.40;;;12.30;34.08
49657;BME280;71194;38.900;-77.124;2023-10-31T09:52:34;100633.10;;;12.21;34.40
49657;BME280;71194;38.900;-77.124;2023-10-31T09:55:03;100637.91;;;12.00;35.30
49657;BME280;71194;38.900;-77.124;2023-10-31T09:57:31;100633.59;;;12.35;35.32
49657;BME280;71194;38.900;-77.124;2023-10-31T09:59:59;100633.48;;;12.51;34.91
49657;BME280;71194;38.900;-77.124;2023-10-31T10:02:27;100642.19;;;12.43;34.48
49657;BME280;71194;38.900;-77.124;2023-10-31T10:04:55;100648.09;;;12.21;34.59
49657;BME280;71194;38.900;-77.124;2023-10-31T10:07:23;100648.78;;;12.24;34.18
49657;BME280;71194;38.900;-77.124;2023-10-31T10:09:51;100639.46;;;11.71;34.23
49657;BME280;71194;38.900;-77.124;2023-10-31T10:12:19;100636.63;;;12.05;33.45
49657;BME280;71194;38.900;-77.124;2023-10-31T10:14:48;100642.60;;;11.78;33.82
49657;BME280;71194;38.900;-77.124;2023-10-31T10:17:20;100646.94;;;12.24;34.13
49657;BME280;71194;38.900;-77.124;2023-10-31T10:19:48;100636.56;;;12.25;33.88
49657;BME280;71194;38.900;-77.124;2023-10-31T10:22:31;100640.54;;;11.75;33.74
49657;BME280;71194;38.900;-77.124;2023-10-31T10:24:59;100644.89;;;11.88;34.09
49657;BME280;71194;38.900;-77.124;2023-10-31T10:27:27;100645.76;;;11.90;34.77
49657;BME280;71194;38.900;-77.124;2023-10-31T10:29:55;100652.29;;;11.66;34.82
49657;BME280;71194;38.900;-77.124;2023-10-31T10:32:23;100655.45;;;11.64;34.76
49657;BME280;71194;38.900;-77.124;2023-10-31T10:34:51;100658.71;;;11.57;35.11
49657;BME280;71194;38.900;-77.124;2023-10-31T10:37:19;100666.63;;;11.63;35.40
49657;BME280;71194;38.900;-77.124;2023-10-31T10:39:48;100674.26;;;11.74;35.07
49657;BME280;71194;38.900;-77.124;2023-10-31T10:42:27;100669.39;;;11.76;35.10
49657;BME280;71194;38.900;-77.124;2023-10-31T10:45:01;100673.83;;;11.54;35.83
49657;BME280;71194;38.900;-77.124;2023-10-31T10:47:29;100672.45;;;11.76;35.41
49657;BME280;71194;38.900;-77.124;2023-10-31T10:50:00;100678.99;;;11.54;35.43
49657;BME280;71194;38.900;-77.124;2023-10-31T10:52:30;100682.92;;;11.54;35.96
49657;BME280;71194;38.900;-77.124;2023-10-31T10:55:08;100682.00;;;11.68;36.09
49657;BME280;71194;38.900;-77.124;2023-10-31T10:57:42;100686.77;;;11.59;35.79
49657;BME280;71194;38.900;-77.124;2023-10-31T11:00:13;100685.25;;;11.52;36.38
49657;BME280;71194;38.900;-77.124;2023-10-31T11:02:42;100681.01;;;11.13;36.67
49657;BME280;71194;38.900;-77.124;2023-10-31T11:05:10;100687.88;;;11.39;36.67
49657;BME280;71194;38.900;-77.124;2023-10-31T11:07:40;100703.07;;;11.35;36.98
49657;BME280;71194;38.900;-77.124;2023-10-31T11:10:09;100700.15;;;11.18;36.96
49657;BME280;71194;38.900;-77.124;2023-10-31T11:12:37;100698.84;;;10.94;37.43
49657;BME280;71194;38.900;-77.124;2023-10-31T11:15:06;100707.37;;;10.87;37.14
49657;BME280;71194;38.900;-77.124;2023-10-31T11:17:37;100705.08;;;10.87;37.46
49657;BME280;71194;38.900;-77.124;2023-10-31T11:20:09;100705.94;;;10.84;37.82
49657;BME280;71194;38.900;-77.124;2023-10-31T11:22:38;100702.75;;;10.80;38.13
49657;BME280;71194;38.900;-77.124;2023-10-31T11:25:08;100698.52;;;11.15;38.16
49657;BME280;71194;38.900;-77.124;2023-10-31T11:27:36;100703.00;;;10.87;38.28
49657;BME280;71194;38.900;-77.124;2023-10-31T11:30:06;100715.85;;;10.77;38.57
49657;BME280;71194;38.900;-77.124;2023-10-31T11:32:36;100718.16;;;10.66;39.17
49657;BME280;71194;38.900;-77.124;2023-10-31T11:35:07;100712.58;;;10.71;38.64
49657;BME280;71194;38.900;-77.124;2023-10-31T11:37:34;100717.76;;;10.78;38.46
49657;BME280;71194;38.900;-77.124;2023-10-31T11:40:36;100718.85;;;10.67;38.52
49657;BME280;71194;38.900;-77.124;2023-10-31T11:43:05;100726.62;;;10.59;38.80
49657;BME280;71194;38.900;-77.124;2023-10-31T11:45:35;100735.13;;;10.90;39.19
49657;BME280;71194;38.900;-77.124;2023-10-31T11:48:04;100726.83;;;10.61;39.53
49657;BME280;71194;38.900;-77.124;2023-10-31T11:50:34;100718.77;;;10.60;39.46
49657;BME280;71194;38.900;-77.124;2023-10-31T11:53:04;100723.82;;;10.56;39.49
49657;BME280;71194;38.900;-77.124;2023-10-31T11:55:33;100724.70;;;10.60;38.84
49657;BME280;71194;38.900;-77.124;2023-10-31T11:58:15;100730.57;;;10.73;39.47
49657;BME280;71194;38.900;-77.124;2023-10-31T12:00:44;100744.53;;;10.56;40.06
49657;BME280;71194;38.900;-77.124;2023-10-31T12:03:11;100739.77;;;10.26;40.16
49657;BME280;71194;38.900;-77.124;2023-10-31T12:05:39;100739.18;;;10.80;40.20
49657;BME280;71194;38.900;-77.124;2023-10-31T12:08:07;100739.59;;;10.12;40.51
49657;BME280;71194;38.900;-77.124;2023-10-31T12:10:35;100746.22;;;10.02;40.63
49657;BME280;71194;38.900;-77.124;2023-10-31T12:13:04;100752.16;;;10.65;40.80
49657;BME280;71194;38.900;-77.124;2023-10-31T12:15:32;100759.74;;;10.48;40.52
49657;BME280;71194;38.900;-77.124;2023-10-31T12:18:00;100760.84;;;10.57;40.42
49657;BME280;71194;38.900;-77.124;2023-10-31T12:20:28;100762.00;;;10.43;40.83
49657;BME280;71194;38.900;-77.124;2023-10-31T12:23:04;100756.58;;;10.49;41.17
49657;BME280;71194;38.900;-77.124;2023-10-31T12:25:32;100766.41;;;10.41;41.05
49657;BME280;71194;38.900;-77.124;2023-10-31T12:28:00;100767.73;;;10.27;40.47
49657;BME280;71194;38.900;-77.124;2023-10-31T12:30:28;100768.10;;;10.30;40.79
49657;BME280;71194;38.900;-77.124;2023-10-31T12:32:56;100774.39;;;10.47;40.21
49657;BME280;71194;38.900;-77.124;2023-10-31T12:35:26;100777.72;;;10.37;40.41
49657;BME280;71194;38.900;-77.124;2023-10-31T12:37:54;100784.79;;;10.62;40.33
49657;BME280;71194;38.900;-77.124;2023-10-31T12:40:22;100782.26;;;10.43;40.82
49657;BME280;71194;38.900;-77.124;2023-10-31T12:42:51;100785.69;;;10.57;40.90
49657;BME280;71194;38.900;-77.124;2023-10-31T12:45:19;100787.49;;;11.14;39.67
49657;BME280;71194;38.900;-77.124;2023-10-31T12:48:01;100791.45;;;10.79;39.74
49657;BME280;71194;38.900;-77.124;2023-10-31T12:50:29;100789.00;;;11.24;39.21
49657;BME280;71194;38.900;-77.124;2023-10-31T12:52:58;100787.97;;;10.87;39.49
49657;BME280;71194;38.900;-77.124;2023-10-31T12:55:27;100787.29;;;10.82;39.47
49657;BME280;71194;38.900;-77.124;2023-10-31T12:57:55;100799.58;;;11.02;39.19
49657;BME280;71194;38.900;-77.124;2023-10-31T13:00:30;100799.59;;;10.89;39.47
49657;BME280;71194;38.900;-77.124;2023-10-31T13:03:01;100801.49;;;10.69;39.59
49657;BME280;71194;38.900;-77.124;2023-10-31T13:05:29;100798.68;;;10.60;40.17
49657;BME280;71194;38.900;-77.124;2023-10-31T13:07:57;100788.26;;;10.79;40.43
49657;BME280;71194;38.900;-77.124;2023-10-31T13:10:27;100783.50;;;10.40;40.80
49657;BME280;71194;38.900;-77.124;2023-10-31T13:12:56;100777.54;;;10.54;40.67
49657;BME280;71194;38.900;-77.124;2023-10-31T13:15:24;100787.37;;;10.64;40.80
49657;BME280;71194;38.900;-77.124;2023-10-31T13:17:52;100788.50;;;10.68;40.52
49657;BME280;71194;38.900;-77.124;2023-10-31T13:20:21;100785.51;;;10.68;40.65
49657;BME280;71194;38.900;-77.124;2023-10-31T13:22:49;100783.88;;;11.33;40.62
49657;BME280;71194;38.900;-77.124;2023-10-31T13:25:17;100786.00;;;11.01;40.58
49657;BME280;71194;38.900;-77.124;2023-10-31T13:27:45;100777.39;;;11.40;39.86
49657;BME280;71194;38.900;-77.124;2023-10-31T13:30:13;100772.57;;;12.05;39.22
49657;BME280;71194;38.900;-77.124;2023-10-31T13:32:41;100777.23;;;12.35;38.35
49657;BME280;71194;38.900;-77.124;2023-10-31T13:35:09;100777.10;;;12.39;38.53
49657;BME280;71194;38.900;-77.124;2023-10-31T13:37:37;100778.69;;;12.02;38.42
49657;BME280;71194;38.900;-77.124;2023-10-31T13:40:06;100769.41;;;11.95;38.51
49657;BME280;71194;38.900;-77.124;2023-10-31T13:42:34;100773.72;;;12.27;38.33
49657;BME280;71194;38.900;-77.124;2023-10-31T13:45:02;100768.82;;;12.29;38.06
49657;BME280;71194;38.900;-77.124;2023-10-31T13:47:30;100771.03;;;12.17;38.29